183 км

Карта отелей и гостиниц, располагающихся рядом с аэропортом 183 км :

183 км Ханты-Мансийский автономный округ - Югра 61° 1' 55.9812" N, 69° 16' 5.2212" E
183 км Ханты-Мансийский автономный округ - Югра 61° 1' 55.9812" N, 69° 16' 5.2212" E
Код аэродрома ИКАО
HD7D
Код аэродрома RU
ХД7Д
Координаты
N61.03222° E069.26812°
Превышение над уровнем моря
29
Основная полоса
11/29
Курс магнитный
111,1/291,1
Длина основной ВПП
30
Ширина основной ВПП
10
Покрытие основной ВПП
Нетвёрдое (грунт)
Освещение ВПП
Нет
Тип: 
Вертодром
Класс аэродрома: 
Принадлежность: 
ГА
Статус: 
Недействующий
Сайт: 
E-mail аэродрома: 
Страна: 
Россия
Регион: 
Ханты-Мансийский автономный округ - Югра
Город: 
Дополнительная информация: 


Найти трансфер

С помощью этой формы Вы можете найти трансфер из аэропорта 183 км в город, аэропорт или вокзал:

Погода в аэропортах:

Авиационная погода в Кадале

Регион: 
Погода METAR: 
UIAA 291030Z 29005MPS 9999 -SHRA SCT040CB 08/03 Q1002 R29/70D NOSIG RMK QFE693/0924
Время наблюдения
2022-05-29T10:30:00Z
Температура C
8.0
Точка росы
3.0
Направление ветра
290
Скорость ветра (узлы)
10
Метео видимость
6.21
Облачность
SCT
Нижняя граница облачности (футы)
4000
Явления погоды
-SHRA
Условия полета
VFR
Аэропорт подробнее: 
SCT – разбросанная отдельная облачность;
-SHRA - слабый ливневой дождь;

Авиационная погода в аэропорту Имени Германа Титова

Регион: 
Погода METAR: 
UNBB 291030Z 31005MPS 9999 -RA BKN022 13/12 Q1015 R24/190058 NOSIG RMK QFE739
Время наблюдения
2022-05-29T10:30:00Z
Температура C
13.0
Точка росы
12.0
Направление ветра
310
Скорость ветра (узлы)
10
Метео видимость
6.21
Облачность
BKN
Нижняя граница облачности (футы)
2200
Явления погоды
-RA
Условия полета
MVFR
Аэропорт подробнее: 
BKN – значительная (рассеянная, разорванная) облачность;
-RA - слабый дождь;

Авиационная погода в Йоэнсуу

Регион: 
Погода METAR: 
EFJO 291020Z AUTO 05004KT 020V090 9999 -SHRA FEW033 //////CB 13/11 Q1004
Время наблюдения
2022-05-29T10:20:00Z
Температура C
13.0
Точка росы
11.0
Направление ветра
50
Скорость ветра (узлы)
4
Метео видимость
6.21
Облачность
FEW
Нижняя граница облачности (футы)
3300
Явления погоды
-SHRA
Условия полета
VFR
FEW – незначительная облачность;
-SHRA - слабый ливневой дождь;

Авиационная погода в Пулково

Регион: 
Погода METAR: 
ULLI 291030Z 30004MPS 9999 -SHRA SCT021CB BKN040 13/10 Q1006 R28L/290050 R28R/190055 NOSIG
Время наблюдения
2022-05-29T10:30:00Z
Температура C
13.0
Точка росы
10.0
Направление ветра
300
Скорость ветра (узлы)
8
Метео видимость
6.21
Облачность
SCT
BKN
Нижняя граница облачности (футы)
2100
4000
Явления погоды
-SHRA
Условия полета
VFR
Аэропорт подробнее: 
SCT – разбросанная отдельная облачность; BKN – значительная (рассеянная, разорванная) облачность;
-SHRA - слабый ливневой дождь;